Station NKXA2 - Naked Island, AK Image indicating link to RSS feed of recent meteorological observations for station NKXA2


Conditions at NKXA2 as of
(8:12 am AKDT)
1612 GMT on 07/21/2024:
     

Click on the graph icon in the table below to see a time series plot of the last five days of that observation.

5-day plot - Wind Direction Wind Direction (WDIR): SE ( 140 deg true )
5-day plot - Wind Speed Wind Speed (WSPD): 2 kts
5-day plot - Wind Gust Wind Gust (GST): 4 kts
5-day plot - Air Temperature Air Temperature (ATMP): 57.4 °F
5-day plot - Dew Point Dew Point (DEWP): 53.4 °F
5-day plot - Wind Speed at 10 Meters Wind Speed at 10 meters (WSPD10M): 4 kts
5-day plot - Wind Speed at 20 Meters Wind Speed at 20 meters (WSPD20M): 4 kts
5-day plot -  Wind Speed, Wind Gust and Atmospheric Pressure Combined plot of Wind Speed, Gust, and Air Pressure
Previous observations
TIME
(AKDT)
5-day plot - Wind Direction
WDIR
 
5-day plot - Wind Speed
WSPD
kts
5-day plot - Wind Gust
GST
kts
5-day plot - Wave Height
WVHT
ft
5-day plot - Dominant Wave Period
DPD
sec
5-day plot - Average Wave Period
APD
sec
5-day plot - Mean Wave Direction
MWD
 
5-day plot - Atmospheric Pressure
PRES
in
5-day plot - Pressure Tendency
PTDY
in
5-day plot - Air Temperature
ATMP
°F
5-day plot - Water Temperature
WTMP
°F
5-day plot - Dew Point
DEWP
°F
5-day plot - Salinity
SAL
psu
5-day plot - Visibility
VIS
nmi
5-day plot - Tide (above MLLW)
TIDE
ft
2024-07-21 08:02 am SW 2 3------ 57.4- 53.6---
2024-07-21 07:52 am- 0 2------ 57.6- 54.0---
2024-07-21 07:42 amSSW 1 3------ 56.8- 53.2---
2024-07-21 07:32 am S 2 5------ 56.5- 52.9---
2024-07-21 07:22 am E 2 4------ 56.7- 53.1---
2024-07-21 07:12 am E 4 5------ 56.5- 52.9---
2024-07-21 07:02 am E 5 6------ 56.5- 52.7---
2024-07-21 06:52 am E 5 6------ 56.7- 52.7---
2024-07-21 06:42 am E 5 6------ 57.0- 52.9---
2024-07-21 06:32 am SE 5 7------ 57.2- 52.9---
2024-07-21 06:22 am S 6 9------ 57.0- 52.5---
2024-07-21 06:12 am S 7 12------ 56.7- 52.2---
2024-07-21 06:02 am S 8 13------ 56.5- 52.2---
2024-07-21 05:52 am S 8 14------ 56.7- 52.2---
2024-07-21 05:42 am S 7 13------ 56.8- 52.5---
2024-07-21 05:32 am S 6 9------ 56.8- 52.7---
2024-07-21 05:22 am S 7 10------ 56.5- 52.3---
2024-07-21 05:12 am S 7 11------ 56.3- 52.3---
2024-07-21 05:03 am S 8 10------ 56.1- 52.3---
2024-07-21 04:52 am S 8 11------ 56.1- 52.3---
2024-07-21 04:42 am S 9 14------ 56.7- 52.9---
2024-07-21 04:32 am S 9 11------ 56.8- 53.1---
2024-07-21 04:22 am S 9 12------ 56.8- 53.1---
2024-07-21 04:12 am S 10 13------ 56.8- 53.1---
2024-07-21 04:02 am S 11 15------ 56.8- 53.1---
2024-07-21 03:52 am S 10 12------ 57.0- 53.2---
2024-07-21 03:32 am S 11 14------ 57.2- 53.4---
2024-07-21 03:22 am S 10 13------ 57.0- 53.2---
2024-07-21 03:12 am S 8 10------ 56.8- 53.1---
2024-07-21 03:02 am S 9 11------ 56.8- 53.1---
2024-07-21 02:52 am S 9 12------ 56.8- 53.1---
2024-07-21 02:42 am S 9 13------ 57.2- 53.6---
2024-07-21 02:32 am S 9 14------ 57.4- 53.8---
2024-07-21 02:22 am S 8 12------ 57.4- 53.8---
2024-07-21 02:12 am S 8 12------ 57.6- 54.0---
2024-07-21 02:02 am S 7 11------ 58.1- 54.5---
2024-07-21 01:52 amSSE 5 7------ 58.6- 55.0---
2024-07-21 01:42 am SE 7 8------ 58.3- 54.7---
2024-07-21 01:32 amSSE 7 8------ 57.9- 54.3---
2024-07-21 01:22 am S 8 11------ 57.4- 53.8---
2024-07-21 01:12 am S 7 10------ 57.6- 53.8---
2024-07-21 01:02 am S 6 9------ 57.9- 54.1---
2024-07-21 12:52 am S 6 9------ 57.7- 54.0---
2024-07-21 12:42 am S 7 10------ 57.6- 53.8---
2024-07-21 12:32 am S 9 12------ 57.7- 54.0---
2024-07-21 12:22 am S 8 12------ 57.9- 54.1---
2024-07-21 12:12 am S 7 10------ 57.9- 54.1---
2024-07-21 12:02 am S 9 11------ 57.9- 54.1---
2024-07-20 11:52 pm S 8 11------ 57.9- 54.1---
2024-07-20 11:42 pm S 5 8------ 59.2- 55.0---
2024-07-20 11:32 pm SE 1 2------ 60.1- 55.9---
2024-07-20 11:22 pmESE 2 5------ 59.7- 55.8---
2024-07-20 11:12 pm SE 4 6------ 59.2- 55.4---
2024-07-20 11:02 pm SE 4 6------ 58.8- 55.0---
2024-07-20 10:52 pm S 5 7------ 58.6- 54.9---
2024-07-20 10:42 pm S 4 6------ 58.5- 54.7---
2024-07-20 10:32 pm SE 4 5------ 58.3- 54.5---
2024-07-20 10:22 pm S 4 7------ 58.3- 54.5---
2024-07-20 10:12 pm S 5 8------ 58.3- 54.5---
2024-07-20 10:02 pm S 7 10------ 58.3- 54.5---
2024-07-20 09:52 pm S 4 7------ 58.3- 54.5---
2024-07-20 09:42 pm S 4 5------ 58.5- 54.7---
2024-07-20 09:32 pm S 3 4------ 58.5- 54.7---
2024-07-20 09:22 pm S 3 5------ 58.5- 54.7---
2024-07-20 09:12 pm S 3 5------ 58.5- 54.5---
2024-07-20 09:02 pm S 3 6------ 58.8- 54.7---
2024-07-20 08:52 pm S 4 6------ 59.2- 55.0---
2024-07-20 08:43 pm S 4 6------ 59.0- 54.9---
2024-07-20 08:33 pmSSE 4 6------ 59.0- 54.9---
2024-07-20 08:23 pmSSE 4 7------ 59.4- 55.0---
2024-07-20 08:12 pmSSE 4 6------ 59.5- 55.0---
2024-07-20 08:02 pmSSE 4 6------ 59.7- 55.0---
2024-07-20 07:52 pm S 4 6------ 60.3- 55.4---
2024-07-20 07:42 pm S 4 6------ 60.8- 55.6---
2024-07-20 07:32 pmSSE 3 5------ 61.2- 55.8---
2024-07-20 07:22 pm S 4 5------ 61.7- 55.8---
2024-07-20 07:12 pmSSW 2 4------ 63.1- 55.9---
2024-07-20 07:02 pm S 2 3------ 64.4- 56.1---
2024-07-20 06:52 pm N 1 3------ 65.8- 57.2---
2024-07-20 06:42 pm N 2 5------ 65.5- 56.8---
2024-07-20 06:32 pm N 3 6------ 64.8- 56.5---
2024-07-20 06:22 pm N 4 7------ 64.2- 55.9---
2024-07-20 06:12 pm N 4 7------ 64.2- 55.8---
2024-07-20 06:02 pm N 6 7------ 64.0- 55.6---
2024-07-20 05:52 pmNNE 7 9------ 63.7- 55.6---
2024-07-20 05:42 pm N 8 12------ 63.3- 55.4---
2024-07-20 05:32 pm N 11 13------ 61.9- 54.9---
2024-07-20 05:22 pmNNE 11 15------ 61.5- 54.9---
2024-07-20 05:12 pm N 7 14------ 60.1- 54.5---
2024-07-20 05:02 pm N 6 10------ 59.7- 54.1---
2024-07-20 04:52 pm N 8 12------ 60.4- 54.5---
2024-07-20 04:42 pmNNW 7 13------ 60.3- 54.3---
2024-07-20 04:32 pm N 8 16------ 60.4- 54.5---
2024-07-20 04:22 pm N 9 15------ 60.6- 54.7---
2024-07-20 04:12 pm N 8 14------ 60.6- 54.7---
2024-07-20 03:52 pm N 8 15------ 61.0- 54.7---
2024-07-20 03:42 pm N 7 15------ 60.8- 54.7---
2024-07-20 03:32 pm N 8 15------ 60.4- 54.3---
2024-07-20 03:22 pm N 8 15------ 60.3- 54.3---
2024-07-20 03:12 pm N 7 13------ 60.4- 54.3---
2024-07-20 03:02 pm N 7 14------ 59.7- 54.1---
2024-07-20 02:52 pmNNE 11 17------ 58.6- 53.2---
2024-07-20 02:42 pm N 11 18------ 59.9- 53.8---
2024-07-20 02:32 pmNNW 9 16------ 61.2- 54.5---
2024-07-20 02:22 pmNNW 8 16------ 59.9- 54.1---
2024-07-20 02:12 pm N 8 15------ 59.5- 53.8---
2024-07-20 02:02 pm N 8 16------ 60.3- 54.3---
2024-07-20 01:52 pmNNW 10 17------ 59.7- 54.0---
2024-07-20 01:42 pmNNW 11 19------ 59.0- 53.4---
2024-07-20 01:32 pm N 8 16------ 59.4- 53.6---
2024-07-20 01:22 pm N 8 14------ 59.5- 53.8---
2024-07-20 01:12 pm N 8 20------ 58.8- 53.4---
2024-07-20 01:02 pm N 8 15------ 58.3- 53.2---
2024-07-20 12:52 pm N 11 18------ 58.3- 53.1---
2024-07-20 12:42 pm N 10 17------ 59.0- 53.4---
2024-07-20 12:32 pm N 11 18------ 60.8- 54.1---
2024-07-20 12:22 pmNNE 12 18------ 61.3- 54.7---
2024-07-20 12:12 pm N 11 19------ 61.0- 54.3---
2024-07-20 12:02 pm NE 14 20------ 61.5- 54.5---
2024-07-20 11:52 am NE 15 20------ 61.2- 54.3---
2024-07-20 11:42 am NE 18 25------ 60.8- 54.3---
2024-07-20 11:32 am NE 15 21------ 60.8- 54.3---
2024-07-20 11:22 am NE 15 21------ 60.6- 54.3---
2024-07-20 11:12 amNNE 12 19------ 59.9- 54.1---
2024-07-20 11:02 am N 9 17------ 58.5- 53.4---
2024-07-20 10:52 am N 8 15------ 58.8- 53.6---
2024-07-20 10:42 am N 10 18------ 59.7- 53.8---
2024-07-20 10:32 am NE 16 20------ 61.0- 54.5---
2024-07-20 10:22 am NE 15 20------ 60.6- 54.5---
2024-07-20 10:12 am NE 14 20------ 60.4- 54.5---
2024-07-20 10:02 am NE 15 20------ 60.1- 54.3---
2024-07-20 09:52 am NE 12 16------ 60.3- 54.3---
2024-07-20 09:42 amNNE 12 18------ 59.9- 54.1---
2024-07-20 09:32 amNNE 10 15------ 59.0- 54.1---
2024-07-20 09:22 am N 8 13------ 58.3- 53.4---
2024-07-20 09:12 am N 8 14------ 58.1- 53.4---
2024-07-20 09:02 am N 8 14------ 58.3- 53.4---
2024-07-20 08:52 am NE 12 16------ 59.9- 54.5---
2024-07-20 08:42 am NE 14 18------ 59.5- 54.3---
2024-07-20 08:32 am NE 16 20------ 59.9- 54.5---
2024-07-20 08:22 am NE 15 20------ 59.7- 54.3---
2024-07-20 08:12 am NE 17 25------ 60.4- 54.5---
2024-07-20 08:02 am NE 14 21------ 60.6- 54.7---
2024-07-20 07:52 am NE 13 22------ 59.9- 54.3---